sensor_id;sensor_type;location;lat;lon;timestamp;P1;durP1;ratioP1;P2;durP2;ratioP2
32808;SDS011;19159;48.178;16.386;2023-08-24T00:01:28;8.07;;;4.55;;
32808;SDS011;19159;48.178;16.386;2023-08-24T00:03:54;6.95;;;4.30;;
32808;SDS011;19159;48.178;16.386;2023-08-24T00:06:19;8.98;;;4.10;;
32808;SDS011;19159;48.178;16.386;2023-08-24T00:08:45;6.05;;;3.88;;
32808;SDS011;19159;48.178;16.386;2023-08-24T00:11:10;6.80;;;3.83;;
32808;SDS011;19159;48.178;16.386;2023-08-24T00:13:42;4.60;;;4.13;;
32808;SDS011;19159;48.178;16.386;2023-08-24T00:16:20;5.93;;;4.18;;
32808;SDS011;19159;48.178;16.386;2023-08-24T00:18:46;8.50;;;4.20;;
32808;SDS011;19159;48.178;16.386;2023-08-24T00:21:15;6.13;;;3.97;;
32808;SDS011;19159;48.178;16.386;2023-08-24T00:23:47;5.53;;;3.80;;
32808;SDS011;19159;48.178;16.386;2023-08-24T00:26:13;4.75;;;3.67;;
32808;SDS011;19159;48.178;16.386;2023-08-24T00:28:41;8.35;;;4.32;;
32808;SDS011;19159;48.178;16.386;2023-08-24T00:31:07;4.65;;;4.00;;
32808;SDS011;19159;48.178;16.386;2023-08-24T00:33:33;5.95;;;3.85;;
32808;SDS011;19159;48.178;16.386;2023-08-24T00:36:00;6.60;;;4.30;;
32808;SDS011;19159;48.178;16.386;2023-08-24T00:38:26;4.85;;;3.97;;
32808;SDS011;19159;48.178;16.386;2023-08-24T00:40:51;5.82;;;4.03;;
32808;SDS011;19159;48.178;16.386;2023-08-24T00:43:18;6.10;;;4.55;;
32808;SDS011;19159;48.178;16.386;2023-08-24T00:45:49;6.78;;;4.47;;
32808;SDS011;19159;48.178;16.386;2023-08-24T00:48:20;7.07;;;4.20;;
32808;SDS011;19159;48.178;16.386;2023-08-24T00:50:51;5.75;;;4.18;;
32808;SDS011;19159;48.178;16.386;2023-08-24T00:53:18;4.85;;;4.10;;
32808;SDS011;19159;48.178;16.386;2023-08-24T00:55:44;8.77;;;4.60;;
32808;SDS011;19159;48.178;16.386;2023-08-24T00:58:11;5.63;;;3.53;;
32808;SDS011;19159;48.178;16.386;2023-08-24T01:00:38;6.20;;;4.22;;
32808;SDS011;19159;48.178;16.386;2023-08-24T01:03:04;10.40;;;4.53;;
32808;SDS011;19159;48.178;16.386;2023-08-24T01:05:30;5.05;;;3.42;;
32808;SDS011;19159;48.178;16.386;2023-08-24T01:07:55;8.25;;;3.92;;
32808;SDS011;19159;48.178;16.386;2023-08-24T01:10:21;4.60;;;3.47;;
32808;SDS011;19159;48.178;16.386;2023-08-24T01:15:29;6.07;;;4.40;;
32808;SDS011;19159;48.178;16.386;2023-08-24T01:17:56;8.85;;;4.32;;
32808;SDS011;19159;48.178;16.386;2023-08-24T01:20:27;10.55;;;4.05;;
32808;SDS011;19159;48.178;16.386;2023-08-24T01:23:18;5.82;;;4.15;;
32808;SDS011;19159;48.178;16.386;2023-08-24T01:28:15;5.78;;;3.83;;
32808;SDS011;19159;48.178;16.386;2023-08-24T01:30:41;6.00;;;4.18;;
32808;SDS011;19159;48.178;16.386;2023-08-24T01:33:09;6.55;;;3.88;;
32808;SDS011;19159;48.178;16.386;2023-08-24T01:35:37;5.80;;;3.92;;
32808;SDS011;19159;48.178;16.386;2023-08-24T01:38:03;5.82;;;4.07;;
32808;SDS011;19159;48.178;16.386;2023-08-24T01:43:20;5.53;;;4.13;;
32808;SDS011;19159;48.178;16.386;2023-08-24T01:45:50;6.05;;;4.32;;
32808;SDS011;19159;48.178;16.386;2023-08-24T01:48:18;5.28;;;3.90;;
32808;SDS011;19159;48.178;16.386;2023-08-24T01:50:45;4.93;;;4.22;;
32808;SDS011;19159;48.178;16.386;2023-08-24T01:53:11;8.93;;;5.32;;
32808;SDS011;19159;48.178;16.386;2023-08-24T01:55:37;7.55;;;4.85;;
32808;SDS011;19159;48.178;16.386;2023-08-24T01:58:03;6.38;;;4.32;;
32808;SDS011;19159;48.178;16.386;2023-08-24T02:00:29;7.63;;;4.40;;
32808;SDS011;19159;48.178;16.386;2023-08-24T02:02:54;7.40;;;4.32;;
32808;SDS011;19159;48.178;16.386;2023-08-24T02:05:20;5.63;;;3.92;;
32808;SDS011;19159;48.178;16.386;2023-08-24T02:07:46;8.15;;;5.03;;
32808;SDS011;19159;48.178;16.386;2023-08-24T02:10:11;6.38;;;4.63;;
32808;SDS011;19159;48.178;16.386;2023-08-24T02:12:37;7.03;;;4.38;;
32808;SDS011;19159;48.178;16.386;2023-08-24T02:15:02;5.75;;;4.40;;
32808;SDS011;19159;48.178;16.386;2023-08-24T02:17:28;6.35;;;4.30;;
32808;SDS011;19159;48.178;16.386;2023-08-24T02:19:54;7.10;;;4.53;;
32808;SDS011;19159;48.178;16.386;2023-08-24T02:22:20;6.57;;;4.82;;
32808;SDS011;19159;48.178;16.386;2023-08-24T02:24:46;7.07;;;4.18;;
32808;SDS011;19159;48.178;16.386;2023-08-24T02:27:11;6.28;;;4.60;;
32808;SDS011;19159;48.178;16.386;2023-08-24T02:29:37;5.82;;;4.18;;
32808;SDS011;19159;48.178;16.386;2023-08-24T02:32:04;8.80;;;4.70;;
32808;SDS011;19159;48.178;16.386;2023-08-24T02:34:29;4.97;;;4.40;;
32808;SDS011;19159;48.178;16.386;2023-08-24T02:36:56;5.45;;;4.40;;
32808;SDS011;19159;48.178;16.386;2023-08-24T02:39:22;7.70;;;4.88;;
32808;SDS011;19159;48.178;16.386;2023-08-24T02:41:49;11.43;;;4.20;;
32808;SDS011;19159;48.178;16.386;2023-08-24T02:44:14;4.45;;;3.95;;
32808;SDS011;19159;48.178;16.386;2023-08-24T02:46:40;7.55;;;4.40;;
32808;SDS011;19159;48.178;16.386;2023-08-24T02:49:09;6.00;;;3.72;;
32808;SDS011;19159;48.178;16.386;2023-08-24T02:51:34;5.63;;;4.22;;
32808;SDS011;19159;48.178;16.386;2023-08-24T02:54:00;5.80;;;4.35;;
32808;SDS011;19159;48.178;16.386;2023-08-24T02:56:26;6.40;;;4.05;;
32808;SDS011;19159;48.178;16.386;2023-08-24T02:58:51;5.35;;;3.88;;
32808;SDS011;19159;48.178;16.386;2023-08-24T03:01:17;5.18;;;4.22;;
32808;SDS011;19159;48.178;16.386;2023-08-24T03:03:43;7.10;;;3.92;;
32808;SDS011;19159;48.178;16.386;2023-08-24T03:06:09;7.22;;;4.15;;
32808;SDS011;19159;48.178;16.386;2023-08-24T03:08:35;5.53;;;4.53;;
32808;SDS011;19159;48.178;16.386;2023-08-24T03:11:01;8.70;;;4.10;;
32808;SDS011;19159;48.178;16.386;2023-08-24T03:13:28;5.78;;;4.28;;
32808;SDS011;19159;48.178;16.386;2023-08-24T03:15:54;7.72;;;4.63;;
32808;SDS011;19159;48.178;16.386;2023-08-24T03:18:20;5.78;;;4.65;;
32808;SDS011;19159;48.178;16.386;2023-08-24T03:20:47;5.25;;;4.13;;
32808;SDS011;19159;48.178;16.386;2023-08-24T03:23:13;5.82;;;4.28;;
32808;SDS011;19159;48.178;16.386;2023-08-24T03:25:39;5.45;;;4.55;;
32808;SDS011;19159;48.178;16.386;2023-08-24T03:28:06;5.95;;;4.75;;
32808;SDS011;19159;48.178;16.386;2023-08-24T03:30:34;5.47;;;4.15;;
32808;SDS011;19159;48.178;16.386;2023-08-24T03:33:01;5.45;;;4.72;;
32808;SDS011;19159;48.178;16.386;2023-08-24T03:35:28;8.57;;;5.10;;
32808;SDS011;19159;48.178;16.386;2023-08-24T03:37:55;6.32;;;5.25;;
32808;SDS011;19159;48.178;16.386;2023-08-24T03:40:20;8.38;;;5.22;;
32808;SDS011;19159;48.178;16.386;2023-08-24T03:42:46;7.05;;;5.10;;
32808;SDS011;19159;48.178;16.386;2023-08-24T03:45:12;6.65;;;4.63;;
32808;SDS011;19159;48.178;16.386;2023-08-24T03:47:37;5.07;;;4.57;;
32808;SDS011;19159;48.178;16.386;2023-08-24T03:50:03;11.80;;;5.25;;
32808;SDS011;19159;48.178;16.386;2023-08-24T03:52:29;6.70;;;4.75;;
32808;SDS011;19159;48.178;16.386;2023-08-24T03:54:54;8.40;;;5.68;;
32808;SDS011;19159;48.178;16.386;2023-08-24T03:57:20;7.38;;;5.50;;
32808;SDS011;19159;48.178;16.386;2023-08-24T03:59:46;7.88;;;5.00;;
32808;SDS011;19159;48.178;16.386;2023-08-24T04:02:12;7.40;;;5.47;;
32808;SDS011;19159;48.178;16.386;2023-08-24T04:04:37;5.95;;;4.97;;
32808;SDS011;19159;48.178;16.386;2023-08-24T04:07:03;8.20;;;5.20;;
32808;SDS011;19159;48.178;16.386;2023-08-24T04:09:28;7.22;;;5.85;;
32808;SDS011;19159;48.178;16.386;2023-08-24T04:11:54;5.90;;;5.30;;
32808;SDS011;19159;48.178;16.386;2023-08-24T04:14:20;7.75;;;4.75;;
32808;SDS011;19159;48.178;16.386;2023-08-24T04:16:45;7.20;;;5.00;;
32808;SDS011;19159;48.178;16.386;2023-08-24T04:19:12;10.18;;;5.03;;
32808;SDS011;19159;48.178;16.386;2023-08-24T04:21:38;6.07;;;5.10;;
32808;SDS011;19159;48.178;16.386;2023-08-24T04:24:03;7.97;;;4.75;;
32808;SDS011;19159;48.178;16.386;2023-08-24T04:26:29;8.15;;;6.20;;
32808;SDS011;19159;48.178;16.386;2023-08-24T04:28:55;8.23;;;5.72;;
32808;SDS011;19159;48.178;16.386;2023-08-24T04:31:21;7.18;;;4.82;;
32808;SDS011;19159;48.178;16.386;2023-08-24T04:33:47;7.55;;;5.45;;
32808;SDS011;19159;48.178;16.386;2023-08-24T04:36:12;6.63;;;5.30;;
32808;SDS011;19159;48.178;16.386;2023-08-24T04:38:38;10.27;;;6.03;;
32808;SDS011;19159;48.178;16.386;2023-08-24T04:41:06;6.47;;;5.47;;
32808;SDS011;19159;48.178;16.386;2023-08-24T04:43:33;6.38;;;5.25;;
32808;SDS011;19159;48.178;16.386;2023-08-24T04:46:00;6.63;;;6.00;;
32808;SDS011;19159;48.178;16.386;2023-08-24T04:48:26;8.10;;;6.10;;
32808;SDS011;19159;48.178;16.386;2023-08-24T04:50:52;8.95;;;6.35;;
32808;SDS011;19159;48.178;16.386;2023-08-24T04:53:18;8.48;;;6.18;;
32808;SDS011;19159;48.178;16.386;2023-08-24T04:55:45;7.40;;;5.82;;
32808;SDS011;19159;48.178;16.386;2023-08-24T04:58:12;6.47;;;5.47;;
32808;SDS011;19159;48.178;16.386;2023-08-24T05:00:38;6.55;;;4.97;;
32808;SDS011;19159;48.178;16.386;2023-08-24T05:03:04;9.68;;;5.50;;
32808;SDS011;19159;48.178;16.386;2023-08-24T05:05:33;11.40;;;5.75;;
32808;SDS011;19159;48.178;16.386;2023-08-24T05:08:00;5.63;;;4.82;;
32808;SDS011;19159;48.178;16.386;2023-08-24T05:10:29;7.32;;;4.65;;
32808;SDS011;19159;48.178;16.386;2023-08-24T05:12:56;7.43;;;5.50;;
32808;SDS011;19159;48.178;16.386;2023-08-24T05:15:22;11.68;;;5.13;;
32808;SDS011;19159;48.178;16.386;2023-08-24T05:17:48;9.95;;;5.65;;
32808;SDS011;19159;48.178;16.386;2023-08-24T05:20:13;6.35;;;4.93;;
32808;SDS011;19159;48.178;16.386;2023-08-24T05:22:39;5.88;;;4.72;;
32808;SDS011;19159;48.178;16.386;2023-08-24T05:25:05;5.85;;;4.82;;
32808;SDS011;19159;48.178;16.386;2023-08-24T05:27:31;10.25;;;4.90;;
32808;SDS011;19159;48.178;16.386;2023-08-24T05:29:57;8.32;;;5.35;;
32808;SDS011;19159;48.178;16.386;2023-08-24T05:32:23;6.82;;;5.07;;
32808;SDS011;19159;48.178;16.386;2023-08-24T05:34:49;9.98;;;5.78;;
32808;SDS011;19159;48.178;16.386;2023-08-24T05:37:15;7.45;;;5.50;;
32808;SDS011;19159;48.178;16.386;2023-08-24T05:39:41;6.55;;;5.50;;
32808;SDS011;19159;48.178;16.386;2023-08-24T05:42:07;6.60;;;5.88;;
32808;SDS011;19159;48.178;16.386;2023-08-24T05:44:34;13.65;;;6.88;;
32808;SDS011;19159;48.178;16.386;2023-08-24T05:46:59;7.15;;;5.70;;
32808;SDS011;19159;48.178;16.386;2023-08-24T05:49:25;9.05;;;6.13;;
32808;SDS011;19159;48.178;16.386;2023-08-24T05:51:51;11.13;;;6.38;;
32808;SDS011;19159;48.178;16.386;2023-08-24T05:54:17;9.02;;;6.15;;
32808;SDS011;19159;48.178;16.386;2023-08-24T05:56:44;9.25;;;6.47;;
32808;SDS011;19159;48.178;16.386;2023-08-24T05:59:13;9.45;;;6.32;;
32808;SDS011;19159;48.178;16.386;2023-08-24T06:01:39;12.27;;;6.38;;
32808;SDS011;19159;48.178;16.386;2023-08-24T06:04:06;9.75;;;6.00;;
32808;SDS011;19159;48.178;16.386;2023-08-24T06:06:33;9.82;;;5.63;;
32808;SDS011;19159;48.178;16.386;2023-08-24T06:08:58;9.80;;;5.50;;
32808;SDS011;19159;48.178;16.386;2023-08-24T06:11:24;8.82;;;5.80;;
32808;SDS011;19159;48.178;16.386;2023-08-24T06:13:50;10.77;;;5.55;;
32808;SDS011;19159;48.178;16.386;2023-08-24T06:16:18;9.52;;;5.68;;
32808;SDS011;19159;48.178;16.386;2023-08-24T06:18:44;7.15;;;5.57;;
32808;SDS011;19159;48.178;16.386;2023-08-24T06:21:09;7.13;;;5.47;;
32808;SDS011;19159;48.178;16.386;2023-08-24T06:23:35;8.00;;;5.78;;
32808;SDS011;19159;48.178;16.386;2023-08-24T06:26:01;8.20;;;6.00;;
32808;SDS011;19159;48.178;16.386;2023-08-24T06:28:27;7.50;;;5.55;;
32808;SDS011;19159;48.178;16.386;2023-08-24T06:30:54;7.65;;;5.22;;
32808;SDS011;19159;48.178;16.386;2023-08-24T06:33:20;6.47;;;5.20;;
32808;SDS011;19159;48.178;16.386;2023-08-24T06:35:46;7.85;;;5.65;;
32808;SDS011;19159;48.178;16.386;2023-08-24T06:38:11;11.15;;;6.20;;
32808;SDS011;19159;48.178;16.386;2023-08-24T06:40:38;8.32;;;5.50;;
32808;SDS011;19159;48.178;16.386;2023-08-24T06:45:32;6.78;;;5.30;;
32808;SDS011;19159;48.178;16.386;2023-08-24T06:47:57;7.75;;;5.28;;
32808;SDS011;19159;48.178;16.386;2023-08-24T06:50:23;8.75;;;5.25;;
32808;SDS011;19159;48.178;16.386;2023-08-24T06:52:48;10.30;;;4.90;;
32808;SDS011;19159;48.178;16.386;2023-08-24T06:55:14;6.88;;;5.28;;
32808;SDS011;19159;48.178;16.386;2023-08-24T06:57:40;10.77;;;5.18;;
32808;SDS011;19159;48.178;16.386;2023-08-24T07:00:06;7.70;;;4.47;;
32808;SDS011;19159;48.178;16.386;2023-08-24T07:02:35;10.20;;;5.25;;
32808;SDS011;19159;48.178;16.386;2023-08-24T07:05:02;6.70;;;4.50;;
32808;SDS011;19159;48.178;16.386;2023-08-24T07:07:33;9.80;;;5.20;;
32808;SDS011;19159;48.178;16.386;2023-08-24T07:09:59;7.13;;;4.97;;
32808;SDS011;19159;48.178;16.386;2023-08-24T07:12:25;7.22;;;4.93;;
32808;SDS011;19159;48.178;16.386;2023-08-24T07:14:50;6.32;;;4.93;;
32808;SDS011;19159;48.178;16.386;2023-08-24T07:17:16;7.57;;;5.15;;
32808;SDS011;19159;48.178;16.386;2023-08-24T07:19:43;16.63;;;5.10;;
32808;SDS011;19159;48.178;16.386;2023-08-24T07:22:08;7.68;;;4.93;;
32808;SDS011;19159;48.178;16.386;2023-08-24T07:24:34;6.32;;;5.35;;
32808;SDS011;19159;48.178;16.386;2023-08-24T07:27:01;7.25;;;5.20;;
32808;SDS011;19159;48.178;16.386;2023-08-24T07:29:28;8.05;;;4.95;;
32808;SDS011;19159;48.178;16.386;2023-08-24T07:31:54;7.53;;;4.80;;
32808;SDS011;19159;48.178;16.386;2023-08-24T07:34:19;7.93;;;5.05;;
32808;SDS011;19159;48.178;16.386;2023-08-24T07:36:47;9.10;;;4.38;;
32808;SDS011;19159;48.178;16.386;2023-08-24T07:39:13;8.23;;;5.72;;
32808;SDS011;19159;48.178;16.386;2023-08-24T07:41:40;6.65;;;5.38;;
32808;SDS011;19159;48.178;16.386;2023-08-24T07:44:06;7.72;;;4.90;;
32808;SDS011;19159;48.178;16.386;2023-08-24T07:46:32;7.93;;;5.07;;
32808;SDS011;19159;48.178;16.386;2023-08-24T07:48:58;9.35;;;5.05;;
32808;SDS011;19159;48.178;16.386;2023-08-24T07:51:24;7.53;;;4.82;;
32808;SDS011;19159;48.178;16.386;2023-08-24T07:53:50;7.38;;;4.90;;
32808;SDS011;19159;48.178;16.386;2023-08-24T07:56:17;5.82;;;4.85;;
32808;SDS011;19159;48.178;16.386;2023-08-24T07:58:44;7.28;;;4.65;;
32808;SDS011;19159;48.178;16.386;2023-08-24T08:01:10;6.28;;;4.38;;
32808;SDS011;19159;48.178;16.386;2023-08-24T08:03:36;7.38;;;4.82;;
32808;SDS011;19159;48.178;16.386;2023-08-24T08:06:02;7.70;;;5.30;;
32808;SDS011;19159;48.178;16.386;2023-08-24T08:08:28;7.55;;;5.07;;
32808;SDS011;19159;48.178;16.386;2023-08-24T08:10:57;5.53;;;4.68;;
32808;SDS011;19159;48.178;16.386;2023-08-24T08:13:24;6.88;;;5.22;;
32808;SDS011;19159;48.178;16.386;2023-08-24T08:15:50;7.35;;;4.82;;
32808;SDS011;19159;48.178;16.386;2023-08-24T08:18:16;7.57;;;5.40;;
32808;SDS011;19159;48.178;16.386;2023-08-24T08:20:42;11.18;;;5.65;;
32808;SDS011;19159;48.178;16.386;2023-08-24T08:23:07;9.18;;;4.70;;
32808;SDS011;19159;48.178;16.386;2023-08-24T08:25:33;9.20;;;5.18;;
32808;SDS011;19159;48.178;16.386;2023-08-24T08:27:58;6.97;;;4.97;;
32808;SDS011;19159;48.178;16.386;2023-08-24T08:30:24;7.18;;;5.18;;
32808;SDS011;19159;48.178;16.386;2023-08-24T08:32:50;13.60;;;5.80;;
32808;SDS011;19159;48.178;16.386;2023-08-24T08:35:19;21.02;;;5.00;;
32808;SDS011;19159;48.178;16.386;2023-08-24T08:37:46;7.40;;;4.68;;
32808;SDS011;19159;48.178;16.386;2023-08-24T08:40:14;7.63;;;4.60;;
32808;SDS011;19159;48.178;16.386;2023-08-24T08:42:40;8.40;;;5.20;;
32808;SDS011;19159;48.178;16.386;2023-08-24T08:45:08;7.80;;;4.80;;
32808;SDS011;19159;48.178;16.386;2023-08-24T08:47:35;8.77;;;4.95;;
32808;SDS011;19159;48.178;16.386;2023-08-24T08:50:02;6.75;;;4.18;;
32808;SDS011;19159;48.178;16.386;2023-08-24T08:52:29;8.52;;;4.45;;
32808;SDS011;19159;48.178;16.386;2023-08-24T08:54:54;10.07;;;4.60;;
32808;SDS011;19159;48.178;16.386;2023-08-24T08:57:21;8.43;;;4.35;;
32808;SDS011;19159;48.178;16.386;2023-08-24T08:59:49;7.18;;;4.25;;
32808;SDS011;19159;48.178;16.386;2023-08-24T09:02:18;9.35;;;4.13;;
32808;SDS011;19159;48.178;16.386;2023-08-24T09:04:45;6.13;;;4.15;;
32808;SDS011;19159;48.178;16.386;2023-08-24T09:07:15;12.95;;;4.63;;
32808;SDS011;19159;48.178;16.386;2023-08-24T09:09:41;8.43;;;4.22;;
32808;SDS011;19159;48.178;16.386;2023-08-24T09:12:08;6.97;;;4.22;;
32808;SDS011;19159;48.178;16.386;2023-08-24T09:14:34;6.55;;;4.25;;
32808;SDS011;19159;48.178;16.386;2023-08-24T09:17:03;7.97;;;4.43;;
32808;SDS011;19159;48.178;16.386;2023-08-24T09:19:30;7.38;;;4.50;;
32808;SDS011;19159;48.178;16.386;2023-08-24T09:21:58;8.93;;;4.32;;
32808;SDS011;19159;48.178;16.386;2023-08-24T09:24:32;9.25;;;4.00;;
32808;SDS011;19159;48.178;16.386;2023-08-24T09:26:59;7.97;;;4.32;;
32808;SDS011;19159;48.178;16.386;2023-08-24T09:29:25;7.38;;;4.50;;
32808;SDS011;19159;48.178;16.386;2023-08-24T09:31:51;6.50;;;3.78;;
32808;SDS011;19159;48.178;16.386;2023-08-24T09:34:20;8.05;;;3.92;;
32808;SDS011;19159;48.178;16.386;2023-08-24T09:36:51;7.38;;;3.88;;
32808;SDS011;19159;48.178;16.386;2023-08-24T09:39:17;3.83;;;3.30;;
32808;SDS011;19159;48.178;16.386;2023-08-24T09:41:44;9.23;;;3.95;;
32808;SDS011;19159;48.178;16.386;2023-08-24T09:44:14;7.85;;;3.88;;
32808;SDS011;19159;48.178;16.386;2023-08-24T09:46:42;6.40;;;3.70;;
32808;SDS011;19159;48.178;16.386;2023-08-24T09:49:09;8.27;;;3.78;;
32808;SDS011;19159;48.178;16.386;2023-08-24T09:51:37;10.73;;;4.30;;
32808;SDS011;19159;48.178;16.386;2023-08-24T09:54:05;9.00;;;3.85;;
32808;SDS011;19159;48.178;16.386;2023-08-24T09:56:34;8.10;;;4.20;;
32808;SDS011;19159;48.178;16.386;2023-08-24T09:59:04;8.45;;;4.00;;
32808;SDS011;19159;48.178;16.386;2023-08-24T10:01:35;4.68;;;3.38;;
32808;SDS011;19159;48.178;16.386;2023-08-24T10:04:02;7.03;;;3.80;;
32808;SDS011;19159;48.178;16.386;2023-08-24T10:06:30;9.52;;;4.38;;
32808;SDS011;19159;48.178;16.386;2023-08-24T10:08:58;6.93;;;3.92;;
32808;SDS011;19159;48.178;16.386;2023-08-24T10:11:29;6.60;;;3.70;;
32808;SDS011;19159;48.178;16.386;2023-08-24T10:14:00;11.38;;;4.20;;
32808;SDS011;19159;48.178;16.386;2023-08-24T10:16:36;6.57;;;3.90;;
32808;SDS011;19159;48.178;16.386;2023-08-24T10:19:04;7.05;;;3.58;;
32808;SDS011;19159;48.178;16.386;2023-08-24T10:21:30;7.78;;;3.63;;
32808;SDS011;19159;48.178;16.386;2023-08-24T10:23:57;7.22;;;4.10;;
32808;SDS011;19159;48.178;16.386;2023-08-24T10:26:23;7.10;;;3.67;;
32808;SDS011;19159;48.178;16.386;2023-08-24T10:28:52;6.88;;;3.75;;
32808;SDS011;19159;48.178;16.386;2023-08-24T10:31:18;10.93;;;4.22;;
32808;SDS011;19159;48.178;16.386;2023-08-24T10:33:47;7.85;;;3.78;;
32808;SDS011;19159;48.178;16.386;2023-08-24T10:36:15;11.45;;;4.20;;
32808;SDS011;19159;48.178;16.386;2023-08-24T10:38:42;8.50;;;4.45;;
32808;SDS011;19159;48.178;16.386;2023-08-24T10:41:08;7.63;;;4.03;;
32808;SDS011;19159;48.178;16.386;2023-08-24T10:43:37;7.63;;;4.10;;
32808;SDS011;19159;48.178;16.386;2023-08-24T10:46:04;10.00;;;3.72;;
32808;SDS011;19159;48.178;16.386;2023-08-24T10:53:51;17.25;;;4.03;;
32808;SDS011;19159;48.178;16.386;2023-08-24T10:56:36;11.93;;;3.83;;
32808;SDS011;19159;48.178;16.386;2023-08-24T11:01:42;7.35;;;4.47;;
32808;SDS011;19159;48.178;16.386;2023-08-24T11:04:10;4.22;;;3.60;;
32808;SDS011;19159;48.178;16.386;2023-08-24T11:06:50;7.68;;;3.60;;
32808;SDS011;19159;48.178;16.386;2023-08-24T11:09:18;8.30;;;3.72;;
32808;SDS011;19159;48.178;16.386;2023-08-24T11:11:54;7.20;;;3.80;;
32808;SDS011;19159;48.178;16.386;2023-08-24T11:14:24;9.23;;;3.85;;
32808;SDS011;19159;48.178;16.386;2023-08-24T11:17:16;10.32;;;3.90;;
32808;SDS011;19159;48.178;16.386;2023-08-24T11:19:52;4.10;;;3.65;;
32808;SDS011;19159;48.178;16.386;2023-08-24T11:22:21;5.65;;;3.50;;
32808;SDS011;19159;48.178;16.386;2023-08-24T11:24:48;6.82;;;3.92;;
32808;SDS011;19159;48.178;16.386;2023-08-24T11:27:14;7.75;;;3.80;;
32808;SDS011;19159;48.178;16.386;2023-08-24T11:29:41;10.93;;;4.30;;
32808;SDS011;19159;48.178;16.386;2023-08-24T11:32:07;6.60;;;3.58;;
32808;SDS011;19159;48.178;16.386;2023-08-24T11:34:33;9.25;;;3.83;;
32808;SDS011;19159;48.178;16.386;2023-08-24T11:36:59;7.18;;;3.72;;
32808;SDS011;19159;48.178;16.386;2023-08-24T11:39:25;8.27;;;3.75;;
32808;SDS011;19159;48.178;16.386;2023-08-24T11:41:59;4.68;;;3.47;;
32808;SDS011;19159;48.178;16.386;2023-08-24T11:44:27;12.68;;;4.40;;
32808;SDS011;19159;48.178;16.386;2023-08-24T11:46:53;15.35;;;4.55;;
32808;SDS011;19159;48.178;16.386;2023-08-24T11:49:22;7.97;;;3.80;;
32808;SDS011;19159;48.178;16.386;2023-08-24T11:51:47;6.18;;;3.58;;
32808;SDS011;19159;48.178;16.386;2023-08-24T11:54:16;11.65;;;3.75;;
32808;SDS011;19159;48.178;16.386;2023-08-24T11:56:45;5.10;;;3.65;;
32808;SDS011;19159;48.178;16.386;2023-08-24T11:59:15;11.65;;;4.13;;
32808;SDS011;19159;48.178;16.386;2023-08-24T12:01:42;6.85;;;3.88;;
32808;SDS011;19159;48.178;16.386;2023-08-24T12:04:08;5.60;;;3.38;;
32808;SDS011;19159;48.178;16.386;2023-08-24T12:06:34;7.60;;;3.85;;
32808;SDS011;19159;48.178;16.386;2023-08-24T12:08:59;8.40;;;3.90;;
32808;SDS011;19159;48.178;16.386;2023-08-24T12:11:25;7.60;;;3.85;;
32808;SDS011;19159;48.178;16.386;2023-08-24T12:13:53;9.00;;;3.60;;
32808;SDS011;19159;48.178;16.386;2023-08-24T12:16:20;12.00;;;4.38;;
32808;SDS011;19159;48.178;16.386;2023-08-24T12:18:47;8.18;;;3.95;;
32808;SDS011;19159;48.178;16.386;2023-08-24T12:21:15;9.35;;;3.90;;
32808;SDS011;19159;48.178;16.386;2023-08-24T12:23:41;9.25;;;4.65;;
32808;SDS011;19159;48.178;16.386;2023-08-24T12:26:07;10.13;;;3.47;;
32808;SDS011;19159;48.178;16.386;2023-08-24T12:28:33;7.28;;;4.07;;
32808;SDS011;19159;48.178;16.386;2023-08-24T12:30:59;7.22;;;3.75;;
32808;SDS011;19159;48.178;16.386;2023-08-24T12:33:28;8.40;;;4.25;;
32808;SDS011;19159;48.178;16.386;2023-08-24T12:35:56;9.05;;;3.78;;
32808;SDS011;19159;48.178;16.386;2023-08-24T12:38:24;5.97;;;3.63;;
32808;SDS011;19159;48.178;16.386;2023-08-24T12:40:50;6.78;;;3.58;;
32808;SDS011;19159;48.178;16.386;2023-08-24T12:43:17;6.82;;;3.90;;
32808;SDS011;19159;48.178;16.386;2023-08-24T12:45:42;5.13;;;3.55;;
32808;SDS011;19159;48.178;16.386;2023-08-24T12:48:08;6.88;;;3.40;;
32808;SDS011;19159;48.178;16.386;2023-08-24T12:50:35;6.63;;;3.90;;
32808;SDS011;19159;48.178;16.386;2023-08-24T12:53:01;8.10;;;4.07;;
32808;SDS011;19159;48.178;16.386;2023-08-24T12:55:28;6.88;;;3.95;;
32808;SDS011;19159;48.178;16.386;2023-08-24T12:57:54;5.90;;;3.90;;
32808;SDS011;19159;48.178;16.386;2023-08-24T13:00:19;6.47;;;4.10;;
32808;SDS011;19159;48.178;16.386;2023-08-24T13:02:45;8.07;;;3.55;;
32808;SDS011;19159;48.178;16.386;2023-08-24T13:05:11;9.80;;;3.78;;
32808;SDS011;19159;48.178;16.386;2023-08-24T13:07:37;5.07;;;3.50;;
32808;SDS011;19159;48.178;16.386;2023-08-24T13:10:03;9.98;;;4.55;;
32808;SDS011;19159;48.178;16.386;2023-08-24T13:12:29;10.45;;;3.55;;
32808;SDS011;19159;48.178;16.386;2023-08-24T13:14:55;14.18;;;4.25;;
32808;SDS011;19159;48.178;16.386;2023-08-24T13:17:21;6.15;;;3.72;;
32808;SDS011;19159;48.178;16.386;2023-08-24T13:19:46;9.32;;;4.13;;
32808;SDS011;19159;48.178;16.386;2023-08-24T13:22:14;9.00;;;3.88;;
32808;SDS011;19159;48.178;16.386;2023-08-24T13:24:39;7.90;;;3.63;;
32808;SDS011;19159;48.178;16.386;2023-08-24T13:27:07;8.05;;;3.90;;
32808;SDS011;19159;48.178;16.386;2023-08-24T13:29:35;9.40;;;3.80;;
32808;SDS011;19159;48.178;16.386;2023-08-24T13:32:01;6.55;;;3.60;;
32808;SDS011;19159;48.178;16.386;2023-08-24T13:34:27;8.52;;;3.67;;
32808;SDS011;19159;48.178;16.386;2023-08-24T13:36:53;7.32;;;3.70;;
32808;SDS011;19159;48.178;16.386;2023-08-24T13:39:19;7.88;;;3.70;;
32808;SDS011;19159;48.178;16.386;2023-08-24T13:41:44;10.75;;;4.10;;
32808;SDS011;19159;48.178;16.386;2023-08-24T13:44:10;6.68;;;3.50;;
32808;SDS011;19159;48.178;16.386;2023-08-24T13:46:36;6.18;;;2.97;;
32808;SDS011;19159;48.178;16.386;2023-08-24T13:49:01;7.30;;;3.30;;
32808;SDS011;19159;48.178;16.386;2023-08-24T13:51:27;6.72;;;3.88;;
32808;SDS011;19159;48.178;16.386;2023-08-24T13:53:53;8.73;;;3.75;;
32808;SDS011;19159;48.178;16.386;2023-08-24T13:56:19;7.78;;;3.40;;
32808;SDS011;19159;48.178;16.386;2023-08-24T13:58:45;10.65;;;4.05;;
32808;SDS011;19159;48.178;16.386;2023-08-24T14:01:11;10.73;;;3.80;;
32808;SDS011;19159;48.178;16.386;2023-08-24T14:03:38;7.63;;;3.30;;
32808;SDS011;19159;48.178;16.386;2023-08-24T14:06:05;9.63;;;3.13;;
32808;SDS011;19159;48.178;16.386;2023-08-24T14:08:30;6.13;;;3.47;;
32808;SDS011;19159;48.178;16.386;2023-08-24T14:10:56;5.72;;;3.55;;
32808;SDS011;19159;48.178;16.386;2023-08-24T14:13:22;6.28;;;3.30;;
32808;SDS011;19159;48.178;16.386;2023-08-24T14:15:49;8.98;;;3.72;;
32808;SDS011;19159;48.178;16.386;2023-08-24T14:18:15;7.43;;;3.58;;
32808;SDS011;19159;48.178;16.386;2023-08-24T14:20:42;6.45;;;3.45;;
32808;SDS011;19159;48.178;16.386;2023-08-24T14:23:10;10.40;;;3.55;;
32808;SDS011;19159;48.178;16.386;2023-08-24T14:25:36;5.03;;;3.15;;
32808;SDS011;19159;48.178;16.386;2023-08-24T14:28:01;8.13;;;3.45;;
32808;SDS011;19159;48.178;16.386;2023-08-24T14:30:27;10.65;;;3.90;;
32808;SDS011;19159;48.178;16.386;2023-08-24T14:32:53;8.32;;;3.30;;
32808;SDS011;19159;48.178;16.386;2023-08-24T14:35:18;13.57;;;3.60;;
32808;SDS011;19159;48.178;16.386;2023-08-24T14:37:44;7.70;;;3.40;;
32808;SDS011;19159;48.178;16.386;2023-08-24T14:40:09;5.75;;;3.50;;
32808;SDS011;19159;48.178;16.386;2023-08-24T14:42:35;9.88;;;3.60;;
32808;SDS011;19159;48.178;16.386;2023-08-24T14:45:01;13.98;;;3.65;;
32808;SDS011;19159;48.178;16.386;2023-08-24T14:47:27;7.65;;;3.30;;
32808;SDS011;19159;48.178;16.386;2023-08-24T14:49:52;7.97;;;3.63;;